createdAt,value
2023-04-16T00:00:02.690Z,0
2023-04-16T00:05:02.629Z,0.002
2023-04-16T00:10:02.701Z,0.023
2023-04-16T00:15:02.558Z,0.007
2023-04-16T00:20:02.656Z,0
2023-04-16T00:25:02.715Z,0
2023-04-16T00:30:02.805Z,0
2023-04-16T00:35:02.684Z,0
2023-04-16T00:40:02.706Z,0.006
2023-04-16T00:45:03.169Z,0
2023-04-16T00:50:02.700Z,0.003
2023-04-16T00:55:02.708Z,0.027
2023-04-16T01:00:02.622Z,0.004
2023-04-16T01:05:02.758Z,0
2023-04-16T01:10:02.822Z,0.001
2023-04-16T01:15:02.683Z,0
2023-04-16T01:20:02.690Z,0.001
2023-04-16T01:25:02.653Z,0.001
2023-04-16T01:30:02.757Z,0
2023-04-16T01:35:02.774Z,0.029
2023-04-16T01:40:02.749Z,0.019
2023-04-16T01:45:02.708Z,0.001
2023-04-16T01:50:02.712Z,0
2023-04-16T01:55:02.679Z,0.001
2023-04-16T02:00:02.708Z,0
2023-04-16T02:05:02.969Z,0.002
2023-04-16T02:10:02.909Z,0
2023-04-16T02:15:02.816Z,0
2023-04-16T02:20:02.770Z,0.008
2023-04-16T02:25:02.745Z,0.005
2023-04-16T02:30:02.820Z,0.019
2023-04-16T02:35:02.854Z,0.023
2023-04-16T02:40:02.769Z,0
2023-04-16T02:45:02.863Z,0.005
2023-04-16T02:50:02.755Z,0
2023-04-16T02:55:02.769Z,0
2023-04-16T03:00:02.740Z,0.005
2023-04-16T03:05:02.877Z,0
2023-04-16T03:10:02.816Z,0.01
2023-04-16T03:15:02.805Z,0.037
2023-04-16T03:20:02.775Z,0.011
2023-04-16T03:25:02.823Z,0.001
2023-04-16T03:30:02.898Z,0
2023-04-16T03:35:02.915Z,0
2023-04-16T03:40:02.905Z,0.001
2023-04-16T03:45:02.800Z,0.004
2023-04-16T03:50:02.825Z,0.029
2023-04-16T03:55:02.883Z,0.012
2023-04-16T04:00:02.835Z,0
2023-04-16T04:05:02.934Z,0.002
2023-04-16T04:10:02.976Z,0.026000000000000002
2023-04-16T04:15:02.883Z,0
2023-04-16T04:20:02.924Z,0
2023-04-16T04:25:02.821Z,0.001
2023-04-16T04:30:02.847Z,0
2023-04-16T04:35:00.716Z,27.227
2023-04-16T04:40:00.592Z,32.473
2023-04-16T04:45:00.619Z,37.686
2023-04-16T04:50:00.596Z,58.148
2023-04-16T04:55:00.710Z,52.029
2023-04-16T05:00:00.703Z,58.786
2023-04-16T05:05:00.768Z,53.698
2023-04-16T05:10:00.764Z,83.845
2023-04-16T05:15:00.645Z,132.952
2023-04-16T05:20:00.692Z,122.845
2023-04-16T05:25:00.710Z,95.232
2023-04-16T05:30:00.693Z,119.673
2023-04-16T05:35:00.784Z,185.761
2023-04-16T05:40:00.687Z,254.979
2023-04-16T05:45:00.712Z,348.163
2023-04-16T05:50:00.779Z,422.67400000000004
2023-04-16T05:55:00.796Z,495.574
2023-04-16T06:00:00.707Z,568.062
2023-04-16T06:05:00.846Z,631.319
2023-04-16T06:10:00.817Z,683.242
2023-04-16T06:15:00.795Z,604.366
2023-04-16T06:20:00.779Z,461.498
2023-04-16T06:25:00.714Z,370.197
2023-04-16T06:30:00.854Z,326.175
2023-04-16T06:35:00.931Z,343.281
2023-04-16T06:40:00.696Z,344.449
2023-04-16T06:45:00.785Z,352.762
2023-04-16T06:50:00.733Z,422.146
2023-04-16T06:55:00.760Z,514.655
2023-04-16T07:00:00.823Z,588.1750000000001
2023-04-16T07:05:00.889Z,621.2760000000001
2023-04-16T07:10:01.980Z,588.378
2023-04-16T07:15:00.801Z,684.5980000000001
2023-04-16T07:20:00.821Z,696.844
2023-04-16T07:25:00.799Z,660.742
2023-04-16T07:30:00.796Z,684.191
2023-04-16T07:35:00.842Z,697.417
2023-04-16T07:40:00.876Z,684.272
2023-04-16T07:45:00.819Z,637.365
2023-04-16T07:50:00.742Z,639.9490000000001
2023-04-16T07:55:00.813Z,769.811
2023-04-16T08:00:00.806Z,909.948
2023-04-16T08:05:00.944Z,1031.286
2023-04-16T08:10:00.920Z,1173.248
2023-04-16T08:15:00.863Z,1216.808
2023-04-16T08:20:00.819Z,1156.16
2023-04-16T08:25:00.838Z,1010.7470000000001
2023-04-16T08:30:00.804Z,923.488
2023-04-16T08:35:01.069Z,968.08
2023-04-16T08:40:00.940Z,952.601
2023-04-16T08:45:01.077Z,911.934
2023-04-16T08:50:01.034Z,957.618
2023-04-16T08:55:01.008Z,1098.6770000000001
2023-04-16T09:00:01.074Z,1225.055
2023-04-16T09:05:01.100Z,1283.59
2023-04-16T09:10:01.209Z,1289.2060000000001
2023-04-16T09:15:00.967Z,1271.462
2023-04-16T09:20:00.967Z,1272.678
2023-04-16T09:25:00.929Z,1241.981
2023-04-16T09:30:00.957Z,1220.128
2023-04-16T09:35:00.974Z,1239.074
2023-04-16T09:40:00.973Z,1323.476
2023-04-16T09:45:02.759Z,1442.882
2023-04-16T09:50:00.920Z,1501.766
2023-04-16T09:55:00.930Z,1471.565
2023-04-16T10:00:00.964Z,1431
2023-04-16T10:05:01.011Z,1449.094
2023-04-16T10:10:00.990Z,1489.027
2023-04-16T10:15:00.920Z,1504.064
2023-04-16T10:20:00.957Z,1520.093
2023-04-16T10:25:00.901Z,1514.436
2023-04-16T10:30:00.961Z,1463.269
2023-04-16T10:35:01.027Z,1419.336
2023-04-16T10:40:00.915Z,1359.347
2023-04-16T10:45:00.936Z,1384.536
2023-04-16T10:50:00.968Z,1421.3500000000001
2023-04-16T10:55:00.974Z,1503.761
2023-04-16T11:00:01.028Z,1633.212
2023-04-16T11:05:01.134Z,1772.236
2023-04-16T11:10:01.100Z,2012.875
2023-04-16T11:15:01.049Z,2276.675
2023-04-16T11:20:00.949Z,2524.01
2023-04-16T11:25:01.040Z,2666.3360000000002
2023-04-16T11:30:00.978Z,2716.922
2023-04-16T11:35:01.022Z,2654.966
2023-04-16T11:40:01.206Z,2614.122
2023-04-16T11:45:00.983Z,2914.0570000000002
2023-04-16T11:50:01.143Z,4628.513
2023-04-16T11:55:01.116Z,5431.793
2023-04-16T12:00:03.578Z,5285.151
2023-04-16T12:05:01.322Z,4579.465
2023-04-16T12:10:01.247Z,4087.164
2023-04-16T12:15:01.196Z,3832.83
2023-04-16T12:20:01.138Z,4397.0380000000005
2023-04-16T12:25:01.169Z,4632.147
2023-04-16T12:30:01.086Z,6757.299
2023-04-16T12:35:01.100Z,8231.591
2023-04-16T12:40:01.051Z,7101.308
2023-04-16T12:45:01.114Z,7703.263
2023-04-16T12:50:01.077Z,8514.217
2023-04-16T12:55:01.099Z,5655.755
2023-04-16T13:00:01.033Z,4664.226
2023-04-16T13:05:01.106Z,4769.924
2023-04-16T13:10:01.324Z,4308.654
2023-04-16T13:15:01.167Z,3855.832
2023-04-16T13:20:01.084Z,3812.658
2023-04-16T13:25:01.104Z,3918.752
2023-04-16T13:30:01.092Z,4169.784
2023-04-16T13:35:01.212Z,4358.265
2023-04-16T13:40:01.090Z,4405.144
2023-04-16T13:45:01.134Z,3607.948
2023-04-16T13:50:01.118Z,3627.187
2023-04-16T13:55:01.098Z,3506.439
2023-04-16T14:00:01.182Z,3768.914
2023-04-16T14:05:01.074Z,3635.9210000000003
2023-04-16T14:10:01.195Z,3660.217
2023-04-16T14:15:01.203Z,3504.159
2023-04-16T14:20:01.090Z,3294.141
2023-04-16T14:25:01.498Z,2976.813
2023-04-16T14:30:01.162Z,2732.187
2023-04-16T14:35:01.240Z,2495.578
2023-04-16T14:40:01.118Z,2299.174
2023-04-16T14:45:01.137Z,2151.926
2023-04-16T14:50:01.283Z,2033.97
2023-04-16T14:55:01.156Z,1924.2150000000001
2023-04-16T15:00:01.197Z,1810.279
2023-04-16T15:05:01.216Z,1772.237
2023-04-16T15:10:01.274Z,1635.154
2023-04-16T15:15:01.212Z,1367.05
2023-04-16T15:20:01.198Z,1211.874
2023-04-16T15:25:01.240Z,1110.107
2023-04-16T15:30:01.174Z,1034.511
2023-04-16T15:35:01.332Z,964.154
2023-04-16T15:40:01.310Z,911.575
2023-04-16T15:45:01.243Z,868.581
2023-04-16T15:50:01.194Z,820.869
2023-04-16T15:55:02.931Z,777.936
2023-04-16T16:05:01.386Z,705.549
2023-04-16T16:10:01.526Z,682.153
2023-04-16T16:15:01.444Z,670.917
2023-04-16T16:20:01.339Z,653.297
2023-04-16T16:25:01.311Z,633.839
2023-04-16T16:30:01.345Z,617.539
2023-04-16T16:35:01.325Z,598.427
2023-04-16T16:40:01.225Z,566.649
2023-04-16T16:45:01.267Z,531.58
2023-04-16T16:50:02.853Z,487.991
2023-04-16T16:55:01.282Z,444.53700000000003
2023-04-16T17:00:01.320Z,405.712
2023-04-16T17:05:01.343Z,366.492
2023-04-16T17:10:03.141Z,315.447
2023-04-16T17:15:01.391Z,265.13100000000003
2023-04-16T17:20:01.369Z,214.487
2023-04-16T17:25:01.303Z,165.776
2023-04-16T17:30:01.280Z,125.018
2023-04-16T17:35:01.464Z,94.266
2023-04-16T17:40:01.295Z,65.477
2023-04-16T17:45:01.457Z,42.727000000000004
2023-04-16T17:50:01.789Z,31.926000000000002
2023-04-16T17:55:01.613Z,33.223
2023-04-16T18:00:01.550Z,7.7250000000000005
2023-04-16T18:05:01.373Z,0.14300000000000002
2023-04-16T18:10:01.536Z,0.085
2023-04-16T18:15:01.414Z,0.085
2023-04-16T18:20:01.390Z,0.085
2023-04-16T18:25:01.348Z,0.077
2023-04-16T18:30:01.394Z,0.085
2023-04-16T18:35:01.440Z,0.068
2023-04-16T18:40:01.370Z,0.044
2023-04-16T18:45:01.326Z,0.14200000000000002
2023-04-16T18:50:01.352Z,0.125
2023-04-16T18:55:01.373Z,0.096
2023-04-16T19:00:01.353Z,0.096
2023-04-16T19:05:01.608Z,0.029
2023-04-16T19:10:02.319Z,0.113
2023-04-16T19:15:01.484Z,0.033
2023-04-16T19:20:01.632Z,0
2023-04-16T19:25:01.458Z,0.13
2023-04-16T19:30:01.626Z,0.02
2023-04-16T19:35:01.776Z,0.115
2023-04-16T19:40:01.344Z,0.116
2023-04-16T19:45:01.486Z,0.08
2023-04-16T19:50:01.376Z,0.084
2023-04-16T19:55:01.387Z,0.033
2023-04-16T20:00:01.361Z,0.034
2023-04-16T20:05:01.475Z,0.132
2023-04-16T20:10:02.767Z,0.12
2023-04-16T20:15:01.455Z,0.168
2023-04-16T20:20:01.595Z,0.18
2023-04-16T20:25:01.666Z,0.18
2023-04-16T20:30:02.886Z,0.128
2023-04-16T20:35:01.632Z,0.117
2023-04-16T20:40:01.461Z,0.11800000000000001
2023-04-16T20:45:01.451Z,0.117
2023-04-16T20:50:01.493Z,0.121
2023-04-16T20:55:01.507Z,0.091
2023-04-16T21:00:01.449Z,0
2023-04-16T21:05:01.628Z,0
2023-04-16T21:10:01.492Z,0
2023-04-16T21:15:01.472Z,0
2023-04-16T21:20:01.489Z,0.073
2023-04-16T21:25:01.538Z,0.128
2023-04-16T21:30:01.484Z,0.132
2023-04-16T21:35:01.527Z,0.131
2023-04-16T21:40:01.476Z,0.129
2023-04-16T21:45:01.693Z,0.129
2023-04-16T21:50:01.637Z,0.164
2023-04-16T21:55:01.656Z,0.162
2023-04-16T22:00:01.618Z,0.156
2023-04-16T22:05:01.676Z,0.114
2023-04-16T22:10:01.604Z,0.113
2023-04-16T22:15:02.997Z,0.112
2023-04-16T22:20:01.533Z,0.11
2023-04-16T22:25:01.643Z,0.126
2023-04-16T22:30:01.499Z,0.132
2023-04-16T22:35:01.562Z,0.068
2023-04-16T22:40:01.605Z,0
2023-04-16T22:45:01.538Z,0.002
2023-04-16T22:50:01.845Z,0
2023-04-16T22:55:01.650Z,0
2023-04-16T23:00:01.530Z,0
2023-04-16T23:05:01.602Z,0.053
2023-04-16T23:10:01.669Z,0
2023-04-16T23:15:01.573Z,0
2023-04-16T23:20:01.574Z,0
2023-04-16T23:25:01.526Z,0
2023-04-16T23:30:01.557Z,0
2023-04-16T23:35:01.804Z,0
2023-04-16T23:40:01.894Z,0
2023-04-16T23:45:01.680Z,0
2023-04-16T23:50:01.805Z,0
2023-04-16T23:55:01.698Z,0
